Time;durP1;ratioP1;P1;durP2;ratioP2;P2;SDS_P1;SDS_P2;PMS_P1;PMS_P2;Temp;Humidity;BMP_temperature;BMP_pressure;BME280_temperature;BME280_humidity;BME280_pressure;Samples;Min_cycle;Max_cycle;Signal;HPM_P1;HPM_P2
2023/03/31 00:03:20;;;;;;;5.90;4.50;;;23.00;62.30;;;;;;222541;1262;22646;-51
2023/03/31 00:08:28;;;;;;;8.00;5.20;;;23.00;62.30;;;;;;222570;1263;23146;-43
2023/03/31 00:13:34;;;;;;;7.90;4.80;;;23.00;62.10;;;;;;222418;1263;22734;-45
2023/03/31 00:18:46;;;;;;;6.30;4.80;;;23.10;61.80;;;;;;222753;1254;25317;-48
2023/03/31 00:23:53;;;;;;;6.90;4.40;;;23.10;61.60;;;;;;222616;1263;22636;-47
2023/03/31 00:28:57;;;;;;;6.00;4.30;;;23.00;61.80;;;;;;222334;1264;23672;-48
2023/03/31 00:34:02;;;;;;;7.20;4.20;;;22.90;62.60;;;;;;222673;1263;24309;-44
2023/03/31 00:39:08;;;;;;;7.50;4.30;;;22.80;62.30;;;;;;222380;1263;22560;-43
2023/03/31 00:44:23;;;;;;;6.20;4.30;;;23.00;61.50;;;;;;225012;1266;24371;-42
2023/03/31 00:49:40;;;;;;;7.40;4.50;;;23.10;60.90;;;;;;227498;1266;25452;-42
2023/03/31 00:54:47;;;;;;;6.00;4.10;;;23.00;61.00;;;;;;222438;1267;24183;-44
2023/03/31 00:59:57;;;;;;;5.80;3.60;;;23.10;60.90;;;;;;222512;1265;22510;-44
2023/03/31 01:05:02;;;;;;;5.40;3.80;;;22.70;61.40;;;;;;222608;1264;25320;-45
2023/03/31 01:10:07;;;;;;;5.90;4.20;;;22.70;61.60;;;;;;222664;1269;22618;-43
2023/03/31 01:15:12;;;;;;;5.50;4.00;;;22.70;61.40;;;;;;222547;1246;22756;-44
2023/03/31 01:20:44;;;;;;;5.00;3.90;;;22.70;61.10;;;;;;222629;1269;25258;-46
2023/03/31 01:26:26;;;;;;;6.10;3.90;;;22.60;61.50;;;;;;222451;1264;22699;-50
2023/03/31 01:31:30;;;;;;;;;;;22.50;61.60;;;;;;222520;1262;22557;-44
2023/03/31 01:36:47;;;;;;;7.20;3.80;;;22.30;61.80;;;;;;222333;1246;22517;-49
2023/03/31 01:42:06;;;;;;;6.10;3.80;;;22.30;61.90;;;;;;222577;1269;22524;-51
2023/03/31 01:47:17;;;;;;;4.30;3.70;;;22.30;61.90;;;;;;222396;1261;22508;-46
2023/03/31 01:52:44;;;;;;;6.50;3.50;;;22.30;61.90;;;;;;222733;1262;22525;-50
2023/03/31 01:57:56;;;;;;;5.20;3.50;;;22.20;62.10;;;;;;222620;1262;22751;-45
2023/03/31 02:03:36;;;;;;;4.80;3.80;;;22.20;61.70;;;;;;222663;1257;22520;-49
2023/03/31 02:08:47;;;;;;;5.00;3.70;;;22.10;62.10;;;;;;222227;1263;22514;-45
2023/03/31 02:13:54;;;;;;;5.40;3.50;;;22.10;61.50;;;;;;222071;1263;24198;-45
2023/03/31 02:19:02;;;;;;;5.20;3.60;;;22.10;61.70;;;;;;222462;1262;24186;-44
2023/03/31 02:24:10;;;;;;;4.30;3.30;;;22.00;61.40;;;;;;222186;1265;24177;-48
2023/03/31 02:29:14;;;;;;;4.20;3.50;;;22.00;61.50;;;;;;222552;1262;22689;-43
2023/03/31 02:34:19;;;;;;;3.50;3.10;;;22.00;61.50;;;;;;222289;1255;22517;-50
2023/03/31 02:39:34;;;;;;;4.10;3.10;;;22.00;62.00;;;;;;222542;1255;22519;-44
2023/03/31 02:44:38;;;;;;;4.70;3.30;;;21.90;61.90;;;;;;222290;1260;22512;-43
2023/03/31 02:49:48;;;;;;;4.80;3.10;;;21.90;61.50;;;;;;223505;1269;22774;-43
2023/03/31 02:55:19;;;;;;;3.10;2.40;;;21.90;61.30;;;;;;222831;1263;22909;-42
2023/03/31 03:00:45;;;;;;;5.00;2.90;;;21.90;61.20;;;;;;226147;1254;22509;-45
2023/03/31 03:06:01;;;;;;;4.40;3.20;;;21.90;60.90;;;;;;222765;1262;25436;-45
2023/03/31 03:11:45;;;;;;;2.80;2.50;;;21.90;61.20;;;;;;222902;1255;23893;-42
2023/03/31 03:17:00;;;;;;;3.40;3.00;;;21.80;61.30;;;;;;222867;1261;22592;-41
2023/03/31 03:22:04;;;;;;;3.30;2.80;;;21.80;61.40;;;;;;222926;1262;22523;-43
2023/03/31 03:27:11;;;;;;;3.10;2.80;;;21.70;61.80;;;;;;222863;1254;22508;-49
2023/03/31 03:32:16;;;;;;;3.60;2.70;;;21.70;61.40;;;;;;222976;1268;22529;-44
2023/03/31 03:37:20;;;;;;;2.60;2.40;;;21.80;61.70;;;;;;223083;1265;25384;-46
2023/03/31 03:42:24;;;;;;;4.30;2.70;;;22.00;61.40;;;;;;223121;1255;22524;-41
2023/03/31 03:47:28;;;;;;;3.60;2.90;;;22.20;61.00;;;;;;223047;1256;23134;-45
2023/03/31 03:52:33;;;;;;;3.60;2.40;;;22.50;59.90;;;;;;222946;1252;24204;-42
2023/03/31 03:57:37;;;;;;;3.60;2.40;;;22.70;59.40;;;;;;223084;1269;22587;-42
2023/03/31 04:02:41;;;;;;;3.10;2.20;;;22.80;59.30;;;;;;223068;1262;22512;-45
2023/03/31 04:07:45;;;;;;;3.80;2.90;;;22.80;59.60;;;;;;223138;1262;26569;-47
2023/03/31 04:12:49;;;;;;;2.90;2.50;;;22.90;59.00;;;;;;223133;1262;24198;-46
2023/03/31 04:17:53;;;;;;;3.20;2.40;;;22.80;59.10;;;;;;222800;1262;22524;-43
2023/03/31 04:22:57;;;;;;;3.30;2.50;;;22.90;59.10;;;;;;222564;1262;24193;-42
2023/03/31 04:28:02;;;;;;;2.50;2.30;;;23.00;58.80;;;;;;222484;1265;22609;-47
2023/03/31 04:33:06;;;;;;;2.30;2.10;;;23.00;58.60;;;;;;222340;1265;22522;-44
2023/03/31 04:38:10;;;;;;;3.00;2.00;;;23.10;58.60;;;;;;222440;1269;23888;-44
2023/03/31 04:43:16;;;;;;;2.50;2.30;;;23.10;58.30;;;;;;222614;1263;22601;-47
2023/03/31 04:48:20;;;;;;;3.20;2.20;;;23.20;58.20;;;;;;222476;1254;25387;-43
2023/03/31 04:53:25;;;;;;;2.70;2.00;;;23.20;58.10;;;;;;222421;1262;23721;-46
2023/03/31 04:58:29;;;;;;;3.20;2.10;;;23.20;57.90;;;;;;222609;1255;25597;-46
2023/03/31 05:03:33;;;;;;;2.50;1.90;;;23.00;58.50;;;;;;222453;1255;22511;-48
2023/03/31 05:08:37;;;;;;;2.20;2.00;;;23.10;58.20;;;;;;222481;1256;24043;-47
2023/03/31 05:13:41;;;;;;;3.30;2.30;;;23.30;58.10;;;;;;222443;1262;22691;-51
2023/03/31 05:18:46;;;;;;;3.20;2.20;;;23.20;57.90;;;;;;222400;1255;23904;-44
2023/03/31 05:23:50;;;;;;;1.90;1.80;;;23.10;57.70;;;;;;222482;1262;24436;-44
2023/03/31 05:28:54;;;;;;;5.10;2.10;;;23.10;57.70;;;;;;222407;1254;25204;-46
2023/03/31 05:33:58;;;;;;;2.10;1.90;;;23.00;58.40;;;;;;222472;1256;22510;-45
2023/03/31 05:39:04;;;;;;;2.50;2.00;;;22.90;58.80;;;;;;222459;1257;22587;-50
2023/03/31 05:44:08;;;;;;;7.10;2.40;;;22.80;58.40;;;;;;222537;1262;22613;-45
2023/03/31 05:49:15;;;;;;;3.60;2.00;;;22.70;59.00;;;;;;222432;1255;22511;-54
2023/03/31 05:54:19;;;;;;;2.60;2.20;;;22.60;59.10;;;;;;222321;1260;24217;-54
2023/03/31 05:59:24;;;;;;;8.90;2.20;;;22.50;59.40;;;;;;222418;1260;22623;-55
2023/03/31 06:04:28;;;;;;;6.00;2.10;;;22.50;60.10;;;;;;222453;1255;24309;-52
2023/03/31 06:09:32;;;;;;;5.60;1.90;;;22.50;59.80;;;;;;222338;1262;23945;-44
2023/03/31 06:14:36;;;;;;;3.80;2.00;;;22.50;59.90;;;;;;222455;1262;22644;-43
2023/03/31 06:19:40;;;;;;;2.50;2.30;;;22.40;59.90;;;;;;222448;1265;22515;-46
2023/03/31 06:24:44;;;;;;;3.80;2.40;;;22.40;60.20;;;;;;222419;1256;22520;-45
2023/03/31 06:29:49;;;;;;;4.00;2.90;;;22.40;59.90;;;;;;222375;1262;130526;-48
2023/03/31 06:34:53;;;;;;;4.80;3.20;;;22.40;60.60;;;;;;222264;1262;22527;-48
2023/03/31 06:39:57;;;;;;;3.30;3.00;;;22.30;60.20;;;;;;222136;1263;22646;-46
2023/03/31 06:45:01;;;;;;;4.60;3.20;;;22.50;60.10;;;;;;222287;1266;22516;-44
2023/03/31 06:50:07;;;;;;;7.50;2.90;;;22.50;60.00;;;;;;222467;1261;22532;-44
2023/03/31 06:55:12;;;;;;;6.50;3.40;;;22.40;60.20;;;;;;222617;1255;22589;-51
2023/03/31 07:00:17;;;;;;;8.50;2.70;;;22.50;60.70;;;;;;222537;1265;23877;-46
2023/03/31 07:05:28;;;;;;;7.50;3.20;;;22.40;60.00;;;;;;222314;1260;25316;-52
2023/03/31 07:10:32;;;;;;;6.70;3.20;;;22.30;60.20;;;;;;222020;1257;22504;-52
2023/03/31 07:15:37;;;;;;;9.20;5.10;;;22.30;60.30;;;;;;224688;1254;25311;-50
2023/03/31 07:20:42;;;;;;;3.10;2.40;;;22.30;59.80;;;;;;222515;1269;22639;-45
2023/03/31 07:25:47;;;;;;;5.40;3.70;;;22.30;59.80;;;;;;222452;1263;25463;-47
2023/03/31 07:30:51;;;;;;;9.70;2.80;;;22.30;59.80;;;;;;222475;1263;22507;-47
2023/03/31 07:35:55;;;;;;;9.00;2.70;;;22.30;60.20;;;;;;222393;1262;22807;-44
2023/03/31 07:41:16;;;;;;;12.10;3.20;;;22.30;60.00;;;;;;222440;1246;22508;-45
2023/03/31 07:46:26;;;;;;;12.20;3.30;;;22.40;59.50;;;;;;222488;1262;25387;-43
2023/03/31 07:51:30;;;;;;;12.50;3.10;;;22.30;59.70;;;;;;222247;1262;24205;-43
2023/03/31 07:56:35;;;;;;;5.20;3.00;;;22.30;59.30;;;;;;222354;1265;22527;-44
2023/03/31 08:01:39;;;;;;;7.00;2.70;;;22.20;59.30;;;;;;222324;1256;22516;-43
2023/03/31 08:06:43;;;;;;;12.90;6.60;;;22.30;59.50;;;;;;222546;1265;24332;-44
2023/03/31 08:11:48;;;;;;;84.20;33.30;;;22.30;58.90;;;;;;222637;1266;23916;-45
2023/03/31 08:16:54;;;;;;;81.80;35.70;;;22.10;59.40;;;;;;222647;1265;24197;-46
2023/03/31 08:21:58;;;;;;;69.90;29.70;;;22.10;59.30;;;;;;222466;1265;22633;-44
2023/03/31 08:27:02;;;;;;;69.20;27.80;;;22.00;59.80;;;;;;222023;1266;24258;-46
2023/03/31 08:32:07;;;;;;;58.40;24.80;;;22.00;61.30;;;;;;222577;1263;22574;-45
2023/03/31 08:37:11;;;;;;;52.10;24.40;;;22.00;60.90;;;;;;222438;1265;22514;-44
2023/03/31 08:42:24;;;;;;;54.80;23.40;;;22.00;60.90;;;;;;222431;1265;22517;-46
2023/03/31 08:47:31;;;;;;;48.20;22.50;;;22.00;60.60;;;;;;222424;1269;25314;-50
2023/03/31 08:52:40;;;;;;;43.60;21.30;;;22.00;60.50;;;;;;222466;1262;23889;-45
2023/03/31 08:58:26;;;;;;;43.20;20.70;;;22.10;60.10;;;;;;222409;1263;22569;-45
2023/03/31 09:03:47;;;;;;;42.10;20.40;;;22.10;59.80;;;;;;222472;1265;22518;-44
2023/03/31 09:08:56;;;;;;;38.60;19.90;;;22.10;59.50;;;;;;222222;1263;23917;-46
2023/03/31 09:14:02;;;;;;;37.60;19.10;;;22.10;59.80;;;;;;222456;1263;24463;-46
2023/03/31 09:19:38;;;;;;;39.30;21.90;;;22.00;60.00;;;;;;222466;1262;22524;-44
2023/03/31 09:24:50;;;;;;;31.70;17.40;;;22.10;60.00;;;;;;220881;1263;24351;-46
2023/03/31 09:30:09;;;;;;;33.40;16.80;;;22.10;59.90;;;;;;220676;1270;22549;-46
2023/03/31 09:35:17;;;;;;;31.90;16.70;;;22.00;59.70;;;;;;220679;1264;24348;-50
2023/03/31 09:40:24;;;;;;;27.20;16.00;;;22.10;60.80;;;;;;220817;1264;24079;-49
2023/03/31 09:45:30;;;;;;;27.90;14.20;;;22.10;60.80;;;;;;220815;1274;24202;-49
2023/03/31 09:50:50;;;;;;;28.00;15.40;;;22.10;60.30;;;;;;220766;1272;22510;-44
2023/03/31 09:56:00;;;;;;;25.60;15.40;;;22.20;60.00;;;;;;220582;1274;25382;-46
2023/03/31 10:01:10;;;;;;;24.80;13.60;;;22.30;60.10;;;;;;221667;1269;22637;-44
2023/03/31 10:06:15;;;;;;;26.90;14.50;;;22.20;59.70;;;;;;222227;1263;22622;-48
2023/03/31 10:11:19;;;;;;;25.40;14.50;;;22.30;60.00;;;;;;222292;1257;22530;-45
2023/03/31 10:16:31;;;;;;;22.00;13.30;;;22.30;59.70;;;;;;222314;1262;24164;-46
2023/03/31 10:21:37;;;;;;;22.10;11.90;;;22.30;59.10;;;;;;222252;1269;22546;-45
2023/03/31 10:26:42;;;;;;;22.60;13.60;;;22.30;59.70;;;;;;222038;1262;25226;-44
2023/03/31 10:31:46;;;;;;;22.50;12.70;;;22.20;59.10;;;;;;222649;1263;26645;-43
2023/03/31 10:36:51;;;;;;;21.70;12.20;;;22.20;59.10;;;;;;222362;1263;24231;-44
2023/03/31 10:41:55;;;;;;;23.40;12.10;;;22.20;59.10;;;;;;222303;1265;22635;-50
2023/03/31 10:47:18;;;;;;;17.60;11.30;;;22.30;59.40;;;;;;222300;1262;22605;-47
2023/03/31 10:52:24;;;;;;;19.70;11.50;;;22.30;60.00;;;;;;222302;1263;24243;-44
2023/03/31 10:57:45;;;;;;;21.60;11.90;;;22.20;61.80;;;;;;222361;1262;24336;-47
2023/03/31 11:03:08;;;;;;;18.10;11.00;;;22.20;60.20;;;;;;222336;1253;25516;-51
2023/03/31 11:08:37;;;;;;;22.50;11.20;;;22.10;60.50;;;;;;222290;1259;22510;-47
2023/03/31 11:14:08;;;;;;;19.20;10.80;;;22.10;60.80;;;;;;222463;1262;22652;-45
2023/03/31 11:19:50;;;;;;;18.40;11.00;;;22.20;61.20;;;;;;222433;1263;24310;-53
2023/03/31 11:24:57;;;;;;;18.90;11.20;;;22.30;61.30;;;;;;220886;1269;22532;-48
2023/03/31 11:30:07;;;;;;;19.50;10.70;;;22.40;61.40;;;;;;220864;1270;22539;-46
2023/03/31 11:35:20;;;;;;;19.20;9.80;;;22.50;61.50;;;;;;220827;1269;22618;-43
2023/03/31 11:40:55;;;;;;;21.00;10.00;;;22.30;62.50;;;;;;220768;1272;22520;-51
2023/03/31 11:46:08;;;;;;;17.10;9.80;;;22.40;61.80;;;;;;220832;1270;23934;-49
2023/03/31 11:51:30;;;;;;;17.70;9.80;;;22.30;62.30;;;;;;220909;1274;24189;-47
2023/03/31 11:56:37;;;;;;;15.80;9.60;;;22.30;62.60;;;;;;220865;1274;22633;-44
2023/03/31 12:01:49;;;;;;;15.30;9.80;;;22.30;62.30;;;;;;222157;1259;24373;-45
2023/03/31 12:06:59;;;;;;;16.20;9.40;;;22.40;62.30;;;;;;222417;1263;22773;-47
2023/03/31 12:12:13;;;;;;;24.60;9.50;;;22.50;62.00;;;;;;222579;1268;25264;-49
2023/03/31 12:17:21;;;;;;;15.20;9.20;;;22.40;62.30;;;;;;222129;1263;22731;-48
2023/03/31 12:22:33;;;;;;;13.70;8.00;;;22.30;62.60;;;;;;222271;1262;22507;-49
2023/03/31 12:27:50;;;;;;;14.20;8.50;;;22.20;63.00;;;;;;222289;1262;23161;-47
2023/03/31 12:33:16;;;;;;;18.60;8.80;;;22.30;62.60;;;;;;222464;1254;22579;-46
2023/03/31 12:38:32;;;;;;;11.60;8.20;;;22.40;62.40;;;;;;222291;1262;22565;-46
2023/03/31 12:43:57;;;;;;;13.00;7.60;;;22.30;62.50;;;;;;222327;1265;23927;-48
2023/03/31 12:49:26;;;;;;;13.60;7.70;;;22.30;62.60;;;;;;222178;1263;22515;-45
2023/03/31 12:54:39;;;;;;;11.40;8.20;;;22.20;62.40;;;;;;222315;1264;22535;-46
2023/03/31 12:59:44;;;;;;;12.60;7.60;;;22.30;63.20;;;;;;222284;1251;22513;-46
2023/03/31 13:04:49;;;;;;;12.20;7.00;;;22.40;62.40;;;;;;222376;1263;22618;-48
2023/03/31 13:09:58;;;;;;;13.80;7.60;;;22.30;62.20;;;;;;222379;1263;25387;-47
2023/03/31 13:15:04;;;;;;;15.80;7.40;;;22.40;62.20;;;;;;222531;1265;22538;-46
2023/03/31 13:20:29;;;;;;;11.40;6.70;;;22.40;62.80;;;;;;222478;1256;22508;-48
2023/03/31 13:25:57;;;;;;;10.60;6.80;;;22.40;62.10;;;;;;222414;1261;25383;-45
2023/03/31 13:31:08;;;;;;;13.90;6.80;;;22.40;62.20;;;;;;222418;1263;24825;-47
2023/03/31 13:36:14;;;;;;;10.20;6.10;;;22.40;62.60;;;;;;222398;1248;22506;-47
2023/03/31 13:41:39;;;;;;;9.30;6.10;;;22.30;63.40;;;;;;222382;1262;25623;-47
2023/03/31 13:47:11;;;;;;;10.50;6.00;;;22.40;63.70;;;;;;222358;1256;23902;-46
2023/03/31 13:52:27;;;;;;;7.20;5.70;;;22.50;62.90;;;;;;222434;1267;22519;-48
2023/03/31 13:57:56;;;;;;;8.00;4.80;;;22.70;62.20;;;;;;222576;1268;24391;-48
2023/03/31 14:03:11;;;;;;;9.00;6.00;;;22.60;62.20;;;;;;222315;1262;22515;-43
2023/03/31 14:08:38;;;;;;;7.30;5.50;;;22.50;62.60;;;;;;222505;1261;24217;-44
2023/03/31 14:13:42;;;;;;;11.40;5.80;;;22.50;62.60;;;;;;225180;1265;22516;-46
2023/03/31 14:18:54;;;;;;;9.20;5.70;;;22.50;62.20;;;;;;222274;1265;24189;-45
2023/03/31 14:24:38;;;;;;;6.20;5.00;;;22.50;62.10;;;;;;222470;1269;22523;-50
2023/03/31 14:30:11;;;;;;;7.50;4.60;;;22.40;62.20;;;;;;221963;1262;23876;-45
2023/03/31 14:35:37;;;;;;;9.20;5.10;;;22.40;61.90;;;;;;223519;1266;22585;-45
2023/03/31 14:40:48;;;;;;;5.40;4.70;;;22.20;61.80;;;;;;224018;1269;23898;-45
2023/03/31 14:46:00;;;;;;;7.70;4.50;;;22.30;61.60;;;;;;224914;1268;22525;-46
2023/03/31 14:51:08;;;;;;;7.70;4.30;;;22.30;59.00;;;;;;222437;1264;24218;-47
2023/03/31 14:56:25;;;;;;;25.00;11.00;;;22.50;60.30;;;;;;222350;1262;24289;-46
2023/03/31 15:01:38;;;;;;;68.40;30.30;;;22.50;60.30;;;;;;222297;1262;25446;-46
2023/03/31 15:06:47;;;;;;;92.10;39.30;;;22.40;58.90;;;;;;222446;1266;24376;-46
2023/03/31 15:12:01;;;;;;;68.20;32.40;;;22.30;60.20;;;;;;222406;1255;22519;-50
2023/03/31 15:17:05;;;;;;;68.90;31.30;;;22.20;60.90;;;;;;222530;1261;24245;-44
2023/03/31 15:22:20;;;;;;;71.40;30.30;;;22.30;60.80;;;;;;222355;1269;24215;-48
2023/03/31 15:27:33;;;;;;;61.10;29.00;;;22.50;61.10;;;;;;222277;1258;22531;-50
2023/03/31 15:32:40;;;;;;;58.90;26.70;;;22.40;61.50;;;;;;222304;1262;22514;-46
2023/03/31 15:37:45;;;;;;;44.20;22.90;;;22.50;61.50;;;;;;222182;1257;24350;-51
2023/03/31 15:42:54;;;;;;;47.70;22.10;;;22.30;62.00;;;;;;222424;1264;24234;-45
2023/03/31 15:48:20;;;;;;;50.70;23.20;;;22.30;61.70;;;;;;222173;1267;22525;-49
2023/03/31 15:53:30;;;;;;;42.30;20.20;;;22.20;62.30;;;;;;222506;1263;22591;-46
2023/03/31 15:58:57;;;;;;;45.10;20.70;;;22.40;61.80;;;;;;222177;1262;22522;-47
2023/03/31 16:04:07;;;;;;;39.70;20.20;;;22.20;61.90;;;;;;222464;1254;24256;-51
2023/03/31 16:09:34;;;;;;;35.80;19.70;;;22.10;62.10;;;;;;222241;1254;22616;-50
2023/03/31 16:14:50;;;;;;;38.20;18.30;;;22.20;62.10;;;;;;222252;1267;22542;-47
2023/03/31 16:20:15;;;;;;;41.40;18.50;;;22.30;62.30;;;;;;222373;1263;25445;-46
2023/03/31 16:25:23;;;;;;;35.00;18.00;;;22.20;62.20;;;;;;222462;1262;25489;-49
2023/03/31 16:30:39;;;;;;;32.90;16.60;;;22.10;62.40;;;;;;222359;1264;22566;-44
2023/03/31 16:35:50;;;;;;;29.00;16.20;;;22.10;62.50;;;;;;222433;1254;22699;-49
2023/03/31 16:40:57;;;;;;;27.30;15.50;;;22.10;63.00;;;;;;222317;1254;22578;-48
2023/03/31 16:46:02;;;;;;;24.80;15.10;;;22.10;62.90;;;;;;222537;1262;25489;-46
2023/03/31 16:51:07;;;;;;;28.00;15.20;;;22.10;62.40;;;;;;222129;1261;23917;-46
2023/03/31 16:56:12;;;;;;;27.20;14.30;;;22.10;62.40;;;;;;222223;1256;22499;-47
2023/03/31 17:01:16;;;;;;;28.10;14.60;;;22.10;61.70;;;;;;222458;1250;22574;-50
2023/03/31 17:06:21;;;;;;;27.70;12.90;;;22.10;62.40;;;;;;222412;1261;22719;-49
2023/03/31 17:11:26;;;;;;;25.90;13.00;;;22.20;61.80;;;;;;222390;1262;22521;-51
2023/03/31 17:16:31;;;;;;;23.50;13.40;;;22.10;62.00;;;;;;222419;1255;25413;-51
2023/03/31 17:21:51;;;;;;;21.10;12.40;;;22.30;61.90;;;;;;222480;1254;23956;-50
2023/03/31 17:26:56;;;;;;;25.90;12.90;;;22.40;61.30;;;;;;222575;1254;22512;-47
2023/03/31 17:32:01;;;;;;;28.00;13.30;;;22.30;61.20;;;;;;222410;1264;24221;-54
2023/03/31 17:37:07;;;;;;;24.50;12.30;;;22.20;61.10;;;;;;222359;1266;24221;-46
2023/03/31 17:42:13;;;;;;;19.40;11.10;;;22.30;61.10;;;;;;222413;1260;25268;-47
2023/03/31 17:47:19;;;;;;;19.40;10.70;;;22.20;61.00;;;;;;222418;1263;22528;-47
2023/03/31 17:52:24;;;;;;;19.70;10.70;;;22.30;61.30;;;;;;222329;1254;22536;-47
2023/03/31 17:57:30;;;;;;;20.10;10.60;;;22.40;60.70;;;;;;222351;1254;22526;-46
2023/03/31 18:02:40;;;;;;;17.80;9.50;;;22.30;61.10;;;;;;222489;1262;25329;-48
2023/03/31 18:07:47;;;;;;;16.20;9.50;;;22.20;61.10;;;;;;222518;1254;24257;-45
2023/03/31 18:12:53;;;;;;;14.30;8.60;;;22.30;60.80;;;;;;222512;1260;22598;-51
2023/03/31 18:17:58;;;;;;;14.40;9.70;;;22.20;61.60;;;;;;222480;1248;25333;-47
2023/03/31 18:23:03;;;;;;;13.50;8.50;;;22.10;61.60;;;;;;222460;1264;25266;-51
2023/03/31 18:28:10;;;;;;;14.30;9.50;;;22.20;61.30;;;;;;222353;1261;167727;-45
2023/03/31 18:33:16;;;;;;;12.40;8.60;;;22.10;61.80;;;;;;222553;1254;22533;-51
2023/03/31 18:38:22;;;;;;;14.00;8.80;;;22.10;62.70;;;;;;222425;1263;25348;-48
2023/03/31 18:43:29;;;;;;;13.20;8.90;;;22.10;62.40;;;;;;222435;1261;24362;-50
2023/03/31 18:48:38;;;;;;;14.20;8.40;;;22.10;62.60;;;;;;222554;1262;25275;-49
2023/03/31 18:53:46;;;;;;;24.30;8.90;;;22.30;62.50;;;;;;222637;1261;25277;-46
2023/03/31 18:58:53;;;;;;;14.20;8.00;;;22.40;62.60;;;;;;222581;1260;22521;-49
2023/03/31 19:03:59;;;;;;;13.00;8.80;;;22.40;63.80;;;;;;222400;1262;22514;-48
2023/03/31 19:09:05;;;;;;;12.80;8.20;;;22.30;64.40;;;;;;222056;1261;25320;-44
2023/03/31 19:14:12;;;;;;;13.50;7.40;;;22.40;63.50;;;;;;222362;1260;24046;-47
2023/03/31 19:19:17;;;;;;;12.10;7.80;;;22.40;63.40;;;;;;222315;1253;24196;-50
2023/03/31 19:24:23;;;;;;;11.40;7.40;;;22.50;63.10;;;;;;222399;1255;22556;-46
2023/03/31 19:29:30;;;;;;;10.30;6.40;;;22.60;62.90;;;;;;222345;1259;22605;-48
2023/03/31 19:34:42;;;;;;;10.60;6.70;;;22.50;62.80;;;;;;222601;1254;22616;-48
2023/03/31 19:39:52;;;;;;;11.70;7.00;;;22.40;62.10;;;;;;222461;1261;22534;-47
2023/03/31 19:45:00;;;;;;;9.70;5.50;;;22.40;62.10;;;;;;222343;1257;22511;-50
2023/03/31 19:50:07;;;;;;;10.40;6.20;;;22.30;62.10;;;;;;222471;1254;23915;-51
2023/03/31 19:55:13;;;;;;;12.20;5.70;;;22.20;61.80;;;;;;222357;1254;22526;-46
2023/03/31 20:00:22;;;;;;;11.20;6.30;;;22.20;61.50;;;;;;222365;1256;25448;-46
2023/03/31 20:05:31;;;;;;;8.60;5.60;;;22.20;61.60;;;;;;222460;1254;22640;-50
2023/03/31 20:10:37;;;;;;;9.80;6.00;;;22.30;61.40;;;;;;222773;1254;24234;-50
2023/03/31 20:15:43;;;;;;;11.90;5.50;;;22.30;61.40;;;;;;222284;1262;22521;-47
2023/03/31 20:20:48;;;;;;;9.70;5.90;;;22.20;62.10;;;;;;222451;1254;22537;-47
2023/03/31 20:25:53;;;;;;;8.00;5.60;;;22.20;61.50;;;;;;222281;1258;25271;-43
2023/03/31 20:31:26;;;;;;;13.00;5.50;;;22.20;61.90;;;;;;220798;1270;24234;-48
2023/03/31 20:36:32;;;;;;;15.30;5.80;;;22.30;61.90;;;;;;220883;1260;22534;-49
2023/03/31 20:41:37;;;;;;;11.20;5.70;;;22.30;61.30;;;;;;220735;1260;23176;-46
2023/03/31 20:46:43;;;;;;;11.30;5.80;;;22.30;61.90;;;;;;221013;1269;22513;-46
2023/03/31 20:51:48;;;;;;;8.80;5.40;;;22.20;63.30;;;;;;222436;1262;24259;-45
2023/03/31 20:56:52;;;;;;;14.20;6.10;;;22.00;62.70;;;;;;222329;1254;23019;-47
2023/03/31 21:01:58;;;;;;;14.10;5.20;;;22.10;62.30;;;;;;222600;1254;22568;-49
2023/03/31 21:07:03;;;;;;;9.80;5.00;;;22.00;61.90;;;;;;222058;1266;24362;-45
2023/03/31 21:12:07;;;;;;;9.70;5.00;;;22.00;62.20;;;;;;222202;1254;22508;-45
2023/03/31 21:17:11;;;;;;;10.60;5.10;;;22.00;62.90;;;;;;222069;1254;22525;-46
2023/03/31 21:22:15;;;;;;;10.40;5.70;;;22.00;62.60;;;;;;222276;1263;24183;-47
2023/03/31 21:27:19;;;;;;;10.10;5.30;;;22.00;62.00;;;;;;222279;1253;22523;-47
2023/03/31 21:32:23;;;;;;;11.90;5.70;;;22.00;62.10;;;;;;222260;1253;25312;-47
2023/03/31 21:37:28;;;;;;;7.70;5.20;;;22.00;62.20;;;;;;222500;1253;22529;-51
2023/03/31 21:42:33;;;;;;;11.70;5.10;;;22.00;62.60;;;;;;222459;1263;24183;-51
2023/03/31 21:47:38;;;;;;;7.70;4.60;;;21.90;62.20;;;;;;222762;1253;24238;-52
2023/03/31 21:52:42;;;;;;;17.70;5.90;;;21.80;62.40;;;;;;222637;1247;25442;-47
2023/03/31 21:57:46;;;;;;;10.90;5.20;;;21.90;65.70;;;;;;222871;1263;23158;-44
2023/03/31 22:02:50;;;;;;;12.10;5.40;;;22.00;65.50;;;;;;222727;1253;24086;-44
2023/03/31 22:08:00;;;;;;;9.70;5.10;;;22.00;65.60;;;;;;222742;1253;22514;-47
2023/03/31 22:13:05;;;;;;;6.00;4.50;;;21.90;65.70;;;;;;222742;1253;24366;-51
2023/03/31 22:18:10;;;;;;;8.50;4.70;;;21.90;65.80;;;;;;222472;1263;24362;-49
2023/03/31 22:23:15;;;;;;;6.80;4.70;;;21.90;65.10;;;;;;222681;1257;22623;-50
2023/03/31 22:28:19;;;;;;;9.10;4.50;;;21.90;64.90;;;;;;222456;1256;24254;-49
2023/03/31 22:33:23;;;;;;;10.00;5.10;;;21.80;64.60;;;;;;222517;1263;22660;-48
2023/03/31 22:38:27;;;;;;;8.20;4.40;;;21.70;64.70;;;;;;222701;1264;24392;-51
2023/03/31 22:43:32;;;;;;;6.10;4.60;;;21.70;64.40;;;;;;222262;1263;24052;-46
2023/03/31 22:48:37;;;;;;;5.90;4.10;;;21.70;64.60;;;;;;222290;1265;24301;-47
2023/03/31 22:53:41;;;;;;;9.20;4.70;;;21.70;64.20;;;;;;222125;1254;24254;-46
2023/03/31 22:58:46;;;;;;;5.80;4.70;;;21.60;64.20;;;;;;222285;1262;22577;-49
2023/03/31 23:03:50;;;;;;;8.10;4.00;;;21.60;64.10;;;;;;222230;1256;22603;-51
2023/03/31 23:08:55;;;;;;;7.40;4.00;;;21.60;64.30;;;;;;222485;1262;22538;-46
2023/03/31 23:13:59;;;;;;;8.30;4.00;;;21.60;63.70;;;;;;222283;1262;24356;-46
2023/03/31 23:19:03;;;;;;;7.10;3.60;;;21.80;63.80;;;;;;230149;1269;22156;-45
2023/03/31 23:24:07;;;;;;;5.40;3.60;;;22.20;62.60;;;;;;223729;1262;22510;-51
2023/03/31 23:29:11;;;;;;;6.70;3.90;;;22.60;61.30;;;;;;222066;1265;25661;-46
2023/03/31 23:34:16;;;;;;;5.00;3.00;;;22.60;61.10;;;;;;230144;1265;22121;-50
2023/03/31 23:39:20;;;;;;;4.30;3.10;;;22.80;60.60;;;;;;228674;1262;22636;-47
2023/03/31 23:44:24;;;;;;;3.60;3.10;;;23.00;60.20;;;;;;222361;1255;22643;-51
2023/03/31 23:49:29;;;;;;;4.60;3.60;;;23.00;60.10;;;;;;222313;1256;25287;-53
2023/03/31 23:54:33;;;;;;;4.40;3.30;;;23.00;60.30;;;;;;222427;1262;25259;-48
2023/03/31 23:59:37;;;;;;;3.70;3.20;;;23.00;60.10;;;;;;222489;1254;22511;-48
